Time;durP1;ratioP1;P1;durP2;ratioP2;P2;SDS_P1;SDS_P2;PMS_P1;PMS_P2;Temp;Humidity;BMP_temperature;BMP_pressure;BME280_temperature;BME280_humidity;BME280_pressure;Samples;Min_cycle;Max_cycle;Signal;HPM_P1;HPM_P2
2023/05/20 00:00:48;;;;;;;;;;;18.30;63.10;;;;;;5037843;28;1213;-69
2023/05/20 00:03:16;;;;;;;;;;;18.20;63.00;;;;;;5040734;28;1910;-69
2023/05/20 00:05:42;;;;;;;;;;;18.20;63.10;;;;;;5040587;28;847;-69
2023/05/20 00:08:08;;;;;;;;;;;18.30;63.10;;;;;;5037044;28;823;-69
2023/05/20 00:10:34;;;;;;;;;;;18.30;63.10;;;;;;5035737;28;1220;-70
2023/05/20 00:12:59;;;;;;;;;;;18.30;63.10;;;;;;5023076;28;820;-68
2023/05/20 00:15:25;;;;;;;;;;;18.30;63.10;;;;;;5037826;28;957;-70
2023/05/20 00:17:50;;;;;;;;;;;18.20;63.10;;;;;;5038237;28;856;-69
2023/05/20 00:20:16;;;;;;;;;;;18.20;63.10;;;;;;5037191;28;1381;-69
2023/05/20 00:22:41;;;;;;;;;;;18.20;63.10;;;;;;5018955;28;1914;-69
2023/05/20 00:25:07;;;;;;;;;;;18.20;63.10;;;;;;5038308;28;797;-69
2023/05/20 00:27:33;;;;;;;;;;;18.30;63.20;;;;;;5037097;28;801;-69
2023/05/20 00:29:58;;;;;;;;;;;18.30;63.20;;;;;;5023602;28;1350;-69
2023/05/20 00:32:24;;;;;;;;;;;18.20;63.20;;;;;;5039444;28;1259;-70
2023/05/20 00:34:59;;;;;;;;;;;18.20;63.20;;;;;;5024296;28;1372;-70
2023/05/20 00:37:25;;;;;;;;;;;18.20;63.20;;;;;;5021420;28;809;-69
2023/05/20 00:39:50;;;;;;;;;;;18.20;63.20;;;;;;5037558;28;891;-69
2023/05/20 00:42:25;;;;;;;;;;;18.20;63.20;;;;;;5037183;28;1906;-69
2023/05/20 00:44:51;;;;;;;;;;;18.20;63.50;;;;;;5037412;28;881;-69
2023/05/20 00:47:16;;;;;;;;;;;18.20;63.20;;;;;;5022487;28;795;-69
2023/05/20 00:49:42;;;;;;;;;;;18.20;63.20;;;;;;5023964;28;1065;-68
2023/05/20 00:52:08;;;;;;;;;;;18.20;63.20;;;;;;5038014;28;1357;-69
2023/05/20 00:54:33;;;;;;;;;;;18.20;63.20;;;;;;5028191;28;802;-68
2023/05/20 00:56:59;;;;;;;;;;;18.20;63.20;;;;;;5040135;28;877;-69
2023/05/20 00:59:27;;;;;;;;;;;18.20;63.20;;;;;;5038387;28;825;-70
2023/05/20 01:01:52;;;;;;;;;;;18.20;63.20;;;;;;5021313;28;1381;-69
2023/05/20 01:04:18;;;;;;;;;;;18.20;63.20;;;;;;5042180;28;1906;-69
2023/05/20 01:06:45;;;;;;;;;;;18.20;63.30;;;;;;5038009;28;867;-69
2023/05/20 01:09:10;;;;;;;;;;;18.20;63.30;;;;;;5039817;28;859;-69
2023/05/20 01:11:55;;;;;;;;;;;18.20;63.30;;;;;;5022154;28;1555;-70
2023/05/20 01:14:21;;;;;;;;;;;18.20;63.30;;;;;;5027111;28;840;-69
2023/05/20 01:16:47;;;;;;;;;;;18.20;63.30;;;;;;5023118;28;1011;-69
2023/05/20 01:19:26;;;;;;;;;;;18.20;63.30;;;;;;5021708;28;829;-69
2023/05/20 01:21:52;;;;;;;;;;;18.20;63.30;;;;;;5015496;28;1456;-69
2023/05/20 01:24:17;;;;;;;;;;;18.20;63.30;;;;;;5026387;28;1953;-69
2023/05/20 01:26:47;;;;;;;;;;;18.20;63.30;;;;;;5048805;28;892;-69
2023/05/20 01:29:12;;;;;;;;;;;18.20;63.30;;;;;;5043408;28;1335;-69
2023/05/20 01:31:38;;;;;;;;;;;18.20;63.30;;;;;;5041437;28;1424;-70
2023/05/20 01:34:03;;;;;;;;;;;18.20;63.40;;;;;;5041863;28;1035;-69
2023/05/20 01:36:30;;;;;;;;;;;18.30;63.40;;;;;;5026701;28;848;-69
2023/05/20 01:38:55;;;;;;;;;;;18.20;63.40;;;;;;5026191;28;860;-69
2023/05/20 01:41:21;;;;;;;;;;;18.20;63.30;;;;;;5038196;28;1284;-69
2023/05/20 01:43:46;;;;;;;;;;;18.20;63.40;;;;;;5026541;28;1954;-69
2023/05/20 01:46:12;;;;;;;;;;;18.20;63.40;;;;;;5023700;28;872;-69
2023/05/20 01:48:37;;;;;;;;;;;18.20;63.40;;;;;;5028004;28;899;-68
2023/05/20 01:51:02;;;;;;;;;;;18.20;63.40;;;;;;5042935;28;1245;-70
2023/05/20 01:53:28;;;;;;;;;;;18.20;63.40;;;;;;5043586;28;915;-69
2023/05/20 01:55:53;;;;;;;;;;;18.20;63.40;;;;;;5043919;28;860;-69
2023/05/20 01:58:19;;;;;;;;;;;18.20;63.40;;;;;;5045002;28;994;-69
2023/05/20 02:00:44;;;;;;;;;;;18.20;63.40;;;;;;5040522;28;1330;-69
2023/05/20 02:03:10;;;;;;;;;;;18.20;63.40;;;;;;5039224;28;1902;-69
2023/05/20 02:05:35;;;;;;;;;;;18.20;63.40;;;;;;5040410;28;867;-69
2023/05/20 02:08:01;;;;;;;;;;;18.20;63.50;;;;;;5041267;28;845;-69
2023/05/20 02:10:26;;;;;;;;;;;18.20;63.50;;;;;;5024393;28;1294;-69
2023/05/20 02:12:52;;;;;;;;;;;18.20;63.50;;;;;;5039166;28;920;-69
2023/05/20 02:15:17;;;;;;;;;;;18.20;63.50;;;;;;5041707;28;859;-69
2023/05/20 02:17:43;;;;;;;;;;;18.20;63.50;;;;;;5025594;28;1213;-70
2023/05/20 02:20:09;;;;;;;;;;;18.20;63.50;;;;;;5041420;28;822;-70
2023/05/20 02:22:34;;;;;;;;;;;18.20;63.50;;;;;;5044659;28;1973;-69
2023/05/20 02:25:00;;;;;;;;;;;18.20;63.60;;;;;;5028713;28;1365;-70
2023/05/20 02:27:25;;;;;;;;;;;18.20;63.50;;;;;;5039381;28;812;-70
2023/05/20 02:29:51;;;;;;;;;;;18.20;63.50;;;;;;5042290;28;1313;-68
2023/05/20 02:32:16;;;;;;;;;;;18.20;63.50;;;;;;5042051;28;1267;-69
2023/05/20 02:34:42;;;;;;;;;;;18.20;63.50;;;;;;5039901;28;1352;-70
2023/05/20 02:37:07;;;;;;;;;;;18.20;63.50;;;;;;5038299;28;958;-69
2023/05/20 02:39:33;;;;;;;;;;;18.20;63.50;;;;;;5040872;28;934;-70
2023/05/20 02:41:58;;;;;;;;;;;18.20;63.60;;;;;;5039368;28;1252;-69
2023/05/20 02:44:24;;;;;;;;;;;18.20;63.50;;;;;;5042223;28;1902;-69
2023/05/20 02:46:49;;;;;;;;;;;18.20;63.50;;;;;;5042054;28;897;-69
2023/05/20 02:49:15;;;;;;;;;;;18.20;63.50;;;;;;5038439;28;850;-69
2023/05/20 02:51:40;;;;;;;;;;;18.20;63.60;;;;;;5039068;28;1205;-69
2023/05/20 02:54:06;;;;;;;;;;;18.20;63.50;;;;;;5039470;28;1183;-69
2023/05/20 02:56:32;;;;;;;;;;;18.20;64.30;;;;;;5038140;28;859;-69
2023/05/20 02:58:57;;;;;;;;;;;18.20;63.60;;;;;;5038458;28;815;-69
2023/05/20 03:01:23;;;;;;;;;;;18.20;63.60;;;;;;5037330;28;1373;-69
2023/05/20 03:03:48;;;;;;;;;;;18.20;63.60;;;;;;5038892;28;1906;-69
2023/05/20 03:06:14;;;;;;;;;;;18.20;63.60;;;;;;5039003;28;951;-69
2023/05/20 03:08:41;;;;;;;;;;;18.20;63.60;;;;;;5025916;28;1449;-69
2023/05/20 03:11:07;;;;;;;;;;;18.20;63.60;;;;;;5025240;28;1402;-69
2023/05/20 03:13:33;;;;;;;;;;;18.20;63.60;;;;;;5039579;28;938;-70
2023/05/20 03:16:00;;;;;;;;;;;18.20;63.60;;;;;;5036977;28;846;-69
2023/05/20 03:18:25;;;;;;;;;;;18.20;63.60;;;;;;5026669;28;895;-69
2023/05/20 03:20:51;;;;;;;;;;;18.20;63.60;;;;;;5039674;28;1370;-68
2023/05/20 03:23:16;;;;;;;;;;;18.20;63.60;;;;;;5037633;28;1898;-69
2023/05/20 03:25:42;;;;;;;;;;;18.20;63.60;;;;;;5037722;28;888;-69
2023/05/20 03:28:07;;;;;;;;;;;18.20;63.60;;;;;;5038304;28;852;-69
2023/05/20 03:30:33;;;;;;;;;;;18.20;63.70;;;;;;5039427;28;1221;-68
2023/05/20 03:32:58;;;;;;;;;;;18.20;63.60;;;;;;5036506;28;758;-70
2023/05/20 03:35:24;;;;;;;;;;;18.20;63.70;;;;;;5037740;28;1105;-68
2023/05/20 03:37:51;;;;;;;;;;;18.20;63.70;;;;;;5038053;28;863;-69
2023/05/20 03:40:17;;;;;;;;;;;18.20;63.70;;;;;;5042200;28;1267;-69
2023/05/20 03:42:43;;;;;;;;;;;18.20;63.70;;;;;;5030257;28;1965;-70
2023/05/20 03:45:08;;;;;;;;;;;18.20;63.70;;;;;;5039484;28;880;-69
2023/05/20 03:47:34;;;;;;;;;;;18.20;63.70;;;;;;5038001;28;915;-69
2023/05/20 03:49:59;;;;;;;;;;;18.20;63.70;;;;;;5043210;28;888;-69
2023/05/20 03:52:25;;;;;;;;;;;18.20;63.70;;;;;;5046518;28;1270;-69
2023/05/20 03:54:51;;;;;;;;;;;18.20;63.70;;;;;;5024639;28;910;-70
2023/05/20 03:57:18;;;;;;;;;;;18.20;63.70;;;;;;5038434;28;863;-69
2023/05/20 03:59:44;;;;;;;;;;;18.20;63.70;;;;;;5039017;28;828;-69
2023/05/20 04:02:09;;;;;;;;;;;18.20;63.70;;;;;;5038963;28;1907;-70
2023/05/20 04:04:35;;;;;;;;;;;18.20;63.70;;;;;;5023051;28;894;-69
2023/05/20 04:07:01;;;;;;;;;;;18.20;63.70;;;;;;5037238;28;887;-69
2023/05/20 04:09:27;;;;;;;;;;;18.20;63.30;;;;;;5037646;28;804;-69
2023/05/20 04:11:53;;;;;;;;;;;18.20;63.80;;;;;;5037266;28;1264;-69
2023/05/20 04:14:18;;;;;;;;;;;18.20;63.80;;;;;;5025441;28;890;-70
2023/05/20 04:16:44;;;;;;;;;;;18.20;63.70;;;;;;5041629;28;880;-69
2023/05/20 04:19:10;;;;;;;;;;;18.20;64.20;;;;;;5038529;28;845;-70
2023/05/20 04:21:36;;;;;;;;;;;18.20;63.80;;;;;;5035569;28;1785;-69
2023/05/20 04:24:01;;;;;;;;;;;18.20;63.80;;;;;;5034058;28;1902;-69
2023/05/20 04:26:27;;;;;;;;;;;18.20;63.80;;;;;;5023830;28;1051;-70
2023/05/20 04:28:54;;;;;;;;;;;18.20;63.80;;;;;;5040585;28;1289;-69
2023/05/20 04:31:25;;;;;;;;;;;18.20;63.80;;;;;;5039430;28;1272;-69
2023/05/20 04:33:51;;;;;;;;;;;18.20;63.80;;;;;;5037420;28;1444;-69
2023/05/20 04:36:17;;;;;;;;;;;18.20;63.80;;;;;;5039835;28;1074;-69
2023/05/20 04:38:43;;;;;;;;;;;18.20;63.80;;;;;;5040533;28;865;-68
2023/05/20 04:41:09;;;;;;;;;;;18.20;63.80;;;;;;5044394;28;1302;-69
2023/05/20 04:43:37;;;;;;;;;;;18.20;64.60;;;;;;5043699;28;1961;-69
2023/05/20 04:46:04;;;;;;;;;;;18.20;63.80;;;;;;5039158;28;922;-69
2023/05/20 04:48:30;;;;;;;;;;;18.20;63.80;;;;;;5040814;28;852;-70
2023/05/20 04:50:56;;;;;;;;;;;18.20;63.90;;;;;;5038426;28;1308;-69
2023/05/20 04:53:22;;;;;;;;;;;18.20;63.90;;;;;;5044203;28;963;-69
2023/05/20 04:55:48;;;;;;;;;;;18.20;63.80;;;;;;5043883;28;880;-69
2023/05/20 04:58:16;;;;;;;;;;;18.20;63.90;;;;;;5023582;28;840;-69
2023/05/20 05:00:41;;;;;;;;;;;18.20;63.90;;;;;;5044814;28;1346;-69
2023/05/20 05:03:07;;;;;;;;;;;18.20;64.60;;;;;;5040064;28;1905;-69
2023/05/20 05:05:36;;;;;;;;;;;18.20;63.90;;;;;;5028871;28;984;-69
2023/05/20 05:08:02;;;;;;;;;;;18.20;63.90;;;;;;5040413;28;832;-69
2023/05/20 05:10:28;;;;;;;;;;;18.20;63.90;;;;;;5037707;28;1349;-69
2023/05/20 05:12:53;;;;;;;;;;;18.20;63.90;;;;;;5042179;28;1209;-70
2023/05/20 05:15:20;;;;;;;;;;;18.20;63.90;;;;;;5043563;28;1610;-69
2023/05/20 05:17:46;;;;;;;;;;;18.20;63.90;;;;;;5041784;28;1216;-69
2023/05/20 05:20:11;;;;;;;;;;;18.20;63.90;;;;;;5038861;28;831;-69
2023/05/20 05:22:38;;;;;;;;;;;18.20;64.00;;;;;;5042784;28;2266;-70
2023/05/20 05:25:04;;;;;;;;;;;18.20;64.00;;;;;;5026742;28;843;-69
2023/05/20 05:27:30;;;;;;;;;;;18.20;64.00;;;;;;5040419;28;858;-69
2023/05/20 05:29:55;;;;;;;;;;;18.20;64.00;;;;;;5039933;28;1336;-69
2023/05/20 05:32:20;;;;;;;;;;;18.20;64.00;;;;;;5024505;28;1332;-69
2023/05/20 05:34:46;;;;;;;;;;;18.20;64.00;;;;;;5032583;28;1362;-69
2023/05/20 05:37:11;;;;;;;;;;;18.20;64.00;;;;;;5040040;28;778;-69
2023/05/20 05:39:37;;;;;;;;;;;18.20;64.00;;;;;;5035199;28;856;-69
2023/05/20 05:42:03;;;;;;;;;;;18.20;64.00;;;;;;5040717;28;1777;-69
2023/05/20 05:44:28;;;;;;;;;;;18.20;64.00;;;;;;5033926;28;1959;-69
2023/05/20 05:46:54;;;;;;;;;;;18.20;64.00;;;;;;5041934;28;831;-69
2023/05/20 05:49:19;;;;;;;;;;;18.20;64.00;;;;;;5028146;28;1193;-69
2023/05/20 05:51:45;;;;;;;;;;;18.20;64.00;;;;;;5027949;28;1391;-70
2023/05/20 05:54:10;;;;;;;;;;;18.20;64.00;;;;;;5042828;28;999;-69
2023/05/20 05:56:35;;;;;;;;;;;18.20;64.00;;;;;;5038812;28;828;-68
2023/05/20 05:59:01;;;;;;;;;;;18.20;64.00;;;;;;5036941;28;971;-68
2023/05/20 06:01:26;;;;;;;;;;;18.20;63.80;;;;;;5038524;28;1257;-68
2023/05/20 06:03:52;;;;;;;;;;;18.20;63.10;;;;;;5042149;28;1930;-67
2023/05/20 06:06:18;;;;;;;;;;;18.20;62.70;;;;;;5042515;28;1224;-66
2023/05/20 06:08:43;;;;;;;;;;;18.20;62.50;;;;;;5041271;28;2175;-66
2023/05/20 06:11:09;;;;;;;;;;;18.20;62.20;;;;;;5040884;28;1290;-67
2023/05/20 06:13:34;;;;;;;;;;;18.20;62.10;;;;;;5022773;28;804;-67
2023/05/20 06:16:00;;;;;;;;;;;18.20;62.20;;;;;;5039551;28;863;-67
2023/05/20 06:18:25;;;;;;;;;;;18.10;61.80;;;;;;5039735;28;1239;-67
2023/05/20 06:20:54;;;;;;;;;;;18.10;61.80;;;;;;5040745;28;1287;-67
2023/05/20 06:23:20;;;;;;;;;;;18.20;62.00;;;;;;5042199;28;1898;-67
2023/05/20 06:25:46;;;;;;;;;;;18.10;61.70;;;;;;5032420;28;1416;-67
2023/05/20 06:28:12;;;;;;;;;;;18.10;61.70;;;;;;5037458;28;836;-67
2023/05/20 06:30:37;;;;;;;;;;;18.10;61.60;;;;;;5037127;28;1276;-67
2023/05/20 06:33:02;;;;;;;;;;;18.10;61.60;;;;;;5037342;28;1029;-68
2023/05/20 06:35:28;;;;;;;;;;;18.10;61.50;;;;;;5027313;28;1459;-68
2023/05/20 06:37:54;;;;;;;;;;;18.10;61.50;;;;;;5038454;28;863;-68
2023/05/20 06:40:19;;;;;;;;;;;18.10;61.60;;;;;;5037696;28;1308;-67
2023/05/20 06:42:45;;;;;;;;;;;18.10;61.40;;;;;;5039613;28;1894;-67
2023/05/20 06:45:10;;;;;;;;;;;18.20;61.50;;;;;;5025571;28;828;-66
2023/05/20 06:47:36;;;;;;;;;;;18.10;61.30;;;;;;5024742;28;2073;-67
2023/05/20 06:50:02;;;;;;;;;;;18.20;61.30;;;;;;5024921;28;1967;-75
2023/05/20 06:52:27;;;;;;;;;;;18.10;62.20;;;;;;5025803;28;1393;-77
2023/05/20 06:54:53;;;;;;;;;;;18.10;61.40;;;;;;5024327;28;1039;-70
2023/05/20 06:57:18;;;;;;;;;;;18.10;61.50;;;;;;5040256;28;823;-70
2023/05/20 06:59:43;;;;;;;;;;;18.10;61.50;;;;;;5028818;28;1169;-69
2023/05/20 07:02:09;;;;;;;;;;;18.10;61.60;;;;;;5039539;28;1792;-70
2023/05/20 07:04:35;;;;;;;;;;;18.10;61.70;;;;;;5024077;28;1969;-69
2023/05/20 07:07:00;;;;;;;;;;;18.10;61.70;;;;;;5039223;28;981;-69
2023/05/20 07:09:26;;;;;;;;;;;18.10;61.90;;;;;;5041400;28;1233;-69
2023/05/20 07:11:51;;;;;;;;;;;18.10;62.00;;;;;;5040500;28;1395;-69
2023/05/20 07:14:17;;;;;;;;;;;18.10;63.10;;;;;;5041941;28;1436;-69
2023/05/20 07:16:42;;;;;;;;;;;18.30;63.00;;;;;;5038014;28;1547;-69
2023/05/20 07:19:08;;;;;;;;;;;18.30;63.20;;;;;;5041304;28;1596;-70
2023/05/20 07:21:33;;;;;;;;;;;18.30;63.10;;;;;;5040606;28;1599;-69
2023/05/20 07:23:58;;;;;;;;;;;18.40;63.20;;;;;;5040177;28;1957;-70
2023/05/20 07:26:24;;;;;;;;;;;18.40;63.10;;;;;;5039159;28;1218;-69
2023/05/20 07:28:50;;;;;;;;;;;18.40;63.00;;;;;;5040623;28;1535;-69
2023/05/20 07:31:15;;;;;;;;;;;18.40;63.90;;;;;;5037526;28;1271;-70
2023/05/20 07:33:41;;;;;;;;;;;18.40;63.30;;;;;;5020384;28;1447;-70
2023/05/20 07:36:06;;;;;;;;;;;18.40;63.30;;;;;;5038599;28;934;-70
2023/05/20 07:38:32;;;;;;;;;;;18.40;63.30;;;;;;5039762;28;804;-70
2023/05/20 07:40:57;;;;;;;;;;;18.40;63.30;;;;;;5037817;28;1331;-70
2023/05/20 07:43:23;;;;;;;;;;;18.40;63.40;;;;;;5037540;28;1969;-70
2023/05/20 07:45:48;;;;;;;;;;;18.40;63.50;;;;;;5041383;28;1018;-70
2023/05/20 07:48:14;;;;;;;;;;;18.40;63.60;;;;;;5024978;28;880;-70
2023/05/20 07:50:39;;;;;;;;;;;18.40;63.60;;;;;;5040864;28;1284;-70
2023/05/20 07:53:05;;;;;;;;;;;18.40;63.70;;;;;;5024762;28;1086;-69
2023/05/20 07:55:34;;;;;;;;;;;18.40;63.80;;;;;;5041825;28;841;-70
2023/05/20 07:57:59;;;;;;;;;;;18.40;63.90;;;;;;5038102;28;899;-69
2023/05/20 08:00:25;;;;;;;;;;;18.40;64.00;;;;;;5036483;28;2072;-69
2023/05/20 08:02:50;;;;;;;;;;;18.40;64.10;;;;;;5024154;28;1918;-69
2023/05/20 08:05:16;;;;;;;;;;;18.40;64.20;;;;;;5039365;28;1228;-70
2023/05/20 08:07:42;;;;;;;;;;;18.40;64.40;;;;;;5015245;28;1272;-70
2023/05/20 08:10:07;;;;;;;;;;;18.40;64.50;;;;;;5038260;28;871;-69
2023/05/20 08:12:33;;;;;;;;;;;18.40;64.60;;;;;;5037678;28;1312;-69
2023/05/20 08:14:58;;;;;;;;;;;18.50;65.00;;;;;;5037403;28;1276;-69
2023/05/20 08:17:24;;;;;;;;;;;18.50;65.70;;;;;;5025159;28;1039;-69
2023/05/20 08:19:49;;;;;;;;;;;18.50;65.70;;;;;;5040351;28;824;-69
2023/05/20 08:22:15;;;;;;;;;;;18.50;65.80;;;;;;5041247;28;1240;-69
2023/05/20 08:24:40;;;;;;;;;;;18.50;65.80;;;;;;5037005;28;1964;-70
2023/05/20 08:27:05;;;;;;;;;;;18.50;66.10;;;;;;5037699;28;891;-70
2023/05/20 08:29:31;;;;;;;;;;;18.50;66.20;;;;;;5036088;28;1006;-69
2023/05/20 08:31:56;;;;;;;;;;;18.60;66.30;;;;;;5036525;28;1366;-70
2023/05/20 08:34:22;;;;;;;;;;;18.60;66.10;;;;;;5039101;28;994;-69
2023/05/20 08:36:47;;;;;;;;;;;18.60;66.30;;;;;;5038610;28;923;-69
2023/05/20 08:39:14;;;;;;;;;;;18.60;66.40;;;;;;5036968;28;797;-70
2023/05/20 08:41:39;;;;;;;;;;;18.60;66.40;;;;;;5034143;28;1269;-69
2023/05/20 08:44:05;;;;;;;;;;;18.60;67.00;;;;;;5022869;28;1978;-69
2023/05/20 08:46:31;;;;;;;;;;;18.60;66.90;;;;;;5036988;28;894;-69
2023/05/20 08:48:58;;;;;;;;;;;18.60;66.40;;;;;;5022246;28;1282;-70
2023/05/20 08:51:23;;;;;;;;;;;18.60;66.30;;;;;;5037733;28;1288;-69
2023/05/20 08:53:49;;;;;;;;;;;18.60;66.30;;;;;;5023912;28;878;-69
2023/05/20 08:56:15;;;;;;;;;;;18.60;66.10;;;;;;5039367;28;1670;-69
2023/05/20 08:58:41;;;;;;;;;;;18.60;66.10;;;;;;5022122;28;812;-69
2023/05/20 09:01:07;;;;;;;;;;;18.60;66.30;;;;;;5014084;28;1457;-69
2023/05/20 09:03:32;;;;;;;;;;;18.60;66.30;;;;;;5038228;28;1879;-69
2023/05/20 09:06:07;;;;;;;;;;;18.60;66.20;;;;;;5039766;28;1127;-69
2023/05/20 09:08:33;;;;;;;;;;;18.60;66.20;;;;;;5024175;28;845;-69
2023/05/20 09:10:58;;;;;;;;;;;18.60;66.20;;;;;;5036990;28;1346;-69
2023/05/20 09:13:24;;;;;;;;;;;18.60;66.30;;;;;;5017184;28;2142;-69
2023/05/20 09:15:49;;;;;;;;;;;18.60;66.20;;;;;;5038404;28;1355;-69
2023/05/20 09:18:15;;;;;;;;;;;18.60;66.40;;;;;;5037069;28;1360;-69
2023/05/20 09:20:40;;;;;;;;;;;18.60;66.30;;;;;;5039213;28;1656;-69
2023/05/20 09:23:08;;;;;;;;;;;18.60;66.30;;;;;;5034844;28;1894;-69
2023/05/20 09:25:34;;;;;;;;;;;18.60;66.30;;;;;;5023115;28;887;-70
2023/05/20 09:27:59;;;;;;;;;;;18.60;66.60;;;;;;5042637;28;1022;-70
2023/05/20 09:30:25;;;;;;;;;;;18.60;66.70;;;;;;5025254;28;1400;-70
2023/05/20 09:32:54;;;;;;;;;;;18.60;66.80;;;;;;5040758;28;868;-70
2023/05/20 09:35:20;;;;;;;;;;;18.60;66.70;;;;;;5041002;28;1366;-70
2023/05/20 09:37:45;;;;;;;;;;;18.70;66.70;;;;;;5027369;28;939;-69
2023/05/20 09:40:11;;;;;;;;;;;18.70;66.80;;;;;;5035312;28;802;-70
2023/05/20 09:42:38;;;;;;;;;;;18.70;66.80;;;;;;5024682;28;1899;-70
2023/05/20 09:45:04;;;;;;;;;;;18.70;66.70;;;;;;5027889;28;994;-70
2023/05/20 09:47:30;;;;;;;;;;;18.70;66.70;;;;;;5024953;28;1074;-70
2023/05/20 09:49:56;;;;;;;;;;;18.70;66.60;;;;;;5042659;28;872;-70
2023/05/20 09:52:21;;;;;;;;;;;18.70;66.60;;;;;;5025350;28;1341;-70
2023/05/20 09:54:47;;;;;;;;;;;18.70;66.70;;;;;;5039244;28;954;-70
2023/05/20 09:57:12;;;;;;;;;;;18.60;66.70;;;;;;5021802;28;903;-70
2023/05/20 09:59:38;;;;;;;;;;;18.70;66.90;;;;;;5044525;28;837;-70
2023/05/20 10:02:04;;;;;;;;;;;18.70;66.90;;;;;;5025932;28;1374;-69
2023/05/20 10:04:29;;;;;;;;;;;18.70;67.10;;;;;;5038171;28;2017;-69
2023/05/20 10:07:05;;;;;;;;;;;18.70;67.20;;;;;;5025558;28;946;-69
2023/05/20 10:09:49;;;;;;;;;;;18.70;67.20;;;;;;5038636;28;1060;-69
2023/05/20 10:12:27;;;;;;;;;;;18.70;67.30;;;;;;5042153;28;1271;-69
2023/05/20 10:15:11;;;;;;;;;;;18.70;67.20;;;;;;5026136;28;903;-69
2023/05/20 10:17:54;;;;;;;;;;;18.70;67.10;;;;;;5039643;28;902;-69
2023/05/20 10:20:20;;;;;;;;;;;18.70;68.60;;;;;;5026840;28;1253;-69
2023/05/20 10:22:53;;;;;;;;;;;18.80;68.70;;;;;;5040023;28;1977;-69
2023/05/20 10:25:28;;;;;;;;;;;18.80;68.70;;;;;;5039557;28;908;-69
2023/05/20 10:28:03;;;;;;;;;;;18.80;67.70;;;;;;5023528;28;807;-69
2023/05/20 10:30:29;;;;;;;;;;;18.80;67.50;;;;;;5037475;28;1265;-69
2023/05/20 10:32:56;;;;;;;;;;;18.80;67.50;;;;;;5039392;28;836;-69
2023/05/20 10:35:25;;;;;;;;;;;18.80;67.40;;;;;;5039453;28;1410;-69
2023/05/20 10:37:50;;;;;;;;;;;18.80;67.30;;;;;;5024431;28;868;-69
2023/05/20 10:40:17;;;;;;;;;;;18.80;67.40;;;;;;5037730;28;937;-70
2023/05/20 10:42:43;;;;;;;;;;;18.80;67.40;;;;;;5039617;28;1902;-70
2023/05/20 10:45:09;;;;;;;;;;;18.80;67.40;;;;;;5039036;28;939;-70
2023/05/20 10:47:35;;;;;;;;;;;18.80;67.40;;;;;;5022731;28;830;-70
2023/05/20 10:50:00;;;;;;;;;;;18.80;67.50;;;;;;5025240;28;938;-70
2023/05/20 10:52:26;;;;;;;;;;;18.80;67.40;;;;;;5039168;28;1274;-70
2023/05/20 10:54:55;;;;;;;;;;;18.80;67.60;;;;;;5038842;28;894;-70
2023/05/20 10:57:21;;;;;;;;;;;18.80;67.70;;;;;;5038567;28;932;-70
2023/05/20 10:59:46;;;;;;;;;;;18.80;67.80;;;;;;5025296;28;869;-70
2023/05/20 11:02:14;;;;;;;;;;;18.80;68.00;;;;;;5021458;28;2464;-70
2023/05/20 11:04:39;;;;;;;;;;;18.80;68.10;;;;;;5027048;28;1986;-70
2023/05/20 11:07:05;;;;;;;;;;;18.80;69.20;;;;;;5027229;28;1393;-70
2023/05/20 11:09:30;;;;;;;;;;;18.80;69.40;;;;;;5039180;28;1854;-69
2023/05/20 11:11:56;;;;;;;;;;;18.90;69.80;;;;;;5038591;28;1350;-70
2023/05/20 11:14:21;;;;;;;;;;;18.80;69.40;;;;;;5022651;28;1134;-70
2023/05/20 11:16:50;;;;;;;;;;;18.90;69.10;;;;;;5041258;28;1228;-70
2023/05/20 11:19:17;;;;;;;;;;;18.90;68.90;;;;;;5011708;28;1318;-70
2023/05/20 11:21:46;;;;;;;;;;;18.90;68.70;;;;;;5031738;28;1311;-70
2023/05/20 11:24:12;;;;;;;;;;;18.90;68.40;;;;;;5044075;28;1894;-70
2023/05/20 11:26:37;;;;;;;;;;;18.90;68.50;;;;;;5026046;28;871;-70
2023/05/20 11:29:03;;;;;;;;;;;18.90;69.20;;;;;;5026501;28;1004;-70
2023/05/20 11:31:30;;;;;;;;;;;18.90;68.40;;;;;;5037821;28;1294;-70
2023/05/20 11:33:57;;;;;;;;;;;18.90;68.40;;;;;;5024619;28;1513;-70
2023/05/20 11:36:23;;;;;;;;;;;18.90;68.30;;;;;;5038593;28;895;-70
2023/05/20 11:38:49;;;;;;;;;;;18.90;68.40;;;;;;5038065;28;859;-70
2023/05/20 11:41:14;;;;;;;;;;;18.90;68.40;;;;;;5021685;28;1397;-70
2023/05/20 11:43:41;;;;;;;;;;;18.90;68.40;;;;;;5021950;28;1965;-70
2023/05/20 11:46:07;;;;;;;;;;;18.90;68.30;;;;;;5040259;28;832;-70
2023/05/20 11:48:32;;;;;;;;;;;18.90;68.30;;;;;;5022383;28;1341;-70
2023/05/20 11:50:57;;;;;;;;;;;18.90;68.30;;;;;;5039557;28;1356;-70
2023/05/20 11:53:23;;;;;;;;;;;18.90;68.50;;;;;;5030018;28;880;-70
2023/05/20 11:55:48;;;;;;;;;;;18.90;68.40;;;;;;5039812;28;888;-70
2023/05/20 11:58:14;;;;;;;;;;;18.90;68.30;;;;;;5039599;28;947;-70
2023/05/20 12:00:40;;;;;;;;;;;18.90;68.30;;;;;;5038142;28;1436;-70
2023/05/20 12:03:05;;;;;;;;;;;18.90;68.30;;;;;;5010033;28;1949;-69
2023/05/20 12:05:31;;;;;;;;;;;18.90;68.90;;;;;;5021018;28;865;-68
2023/05/20 12:07:56;;;;;;;;;;;18.90;68.00;;;;;;5023365;28;2123;-69
2023/05/20 12:10:22;;;;;;;;;;;18.80;67.20;;;;;;5039105;28;1424;-68
2023/05/20 12:12:47;;;;;;;;;;;18.90;67.10;;;;;;5032875;28;1419;-68
2023/05/20 12:15:13;;;;;;;;;;;18.80;66.90;;;;;;5027145;28;1412;-68
2023/05/20 12:17:48;;;;;;;;;;;18.80;66.80;;;;;;5027799;28;1273;-68
2023/05/20 12:20:15;;;;;;;;;;;18.80;66.70;;;;;;5032616;28;974;-68
2023/05/20 12:22:41;;;;;;;;;;;18.70;66.40;;;;;;5040372;28;2114;-68
2023/05/20 12:25:07;;;;;;;;;;;18.70;66.30;;;;;;5039927;28;1467;-69
2023/05/20 12:27:32;;;;;;;;;;;18.70;66.20;;;;;;5024413;28;1309;-68
2023/05/20 12:29:58;;;;;;;;;;;18.70;66.10;;;;;;5041067;28;1229;-68
2023/05/20 12:32:24;;;;;;;;;;;18.70;66.20;;;;;;5037436;28;1325;-68
2023/05/20 12:34:49;;;;;;;;;;;18.70;66.20;;;;;;5038922;28;1431;-69
2023/05/20 12:37:15;;;;;;;;;;;18.70;66.10;;;;;;5029027;28;1329;-68
2023/05/20 12:39:40;;;;;;;;;;;18.70;66.00;;;;;;5024754;28;867;-67
2023/05/20 12:42:06;;;;;;;;;;;18.60;66.00;;;;;;5037712;28;1312;-68
2023/05/20 12:44:31;;;;;;;;;;;18.70;65.80;;;;;;5036037;28;1955;-67
2023/05/20 12:46:56;;;;;;;;;;;18.70;65.70;;;;;;5037586;28;930;-68
2023/05/20 12:49:22;;;;;;;;;;;18.70;65.90;;;;;;5025308;28;869;-68
2023/05/20 12:51:47;;;;;;;;;;;18.70;64.90;;;;;;5037779;28;1276;-68
2023/05/20 12:54:13;;;;;;;;;;;18.70;65.00;;;;;;5038774;28;1326;-70
2023/05/20 12:56:39;;;;;;;;;;;18.70;65.20;;;;;;5035046;28;821;-69
2023/05/20 12:59:05;;;;;;;;;;;18.70;65.20;;;;;;5022561;28;1253;-69
2023/05/20 13:01:30;;;;;;;;;;;18.70;65.20;;;;;;5041877;28;1341;-69
2023/05/20 13:03:56;;;;;;;;;;;18.70;65.00;;;;;;5041183;28;1965;-68
2023/05/20 13:06:21;;;;;;;;;;;18.70;65.10;;;;;;5041573;28;880;-69
2023/05/20 13:08:46;;;;;;;;;;;18.70;65.00;;;;;;5038885;28;1022;-67
2023/05/20 13:11:12;;;;;;;;;;;18.70;64.90;;;;;;5040303;28;2150;-68
2023/05/20 13:13:37;;;;;;;;;;;18.70;65.00;;;;;;5040224;28;1985;-69
2023/05/20 13:16:03;;;;;;;;;;;18.60;65.10;;;;;;5023656;28;2125;-69
2023/05/20 13:18:29;;;;;;;;;;;18.70;65.20;;;;;;5027363;28;1690;-69
2023/05/20 13:20:54;;;;;;;;;;;18.60;65.10;;;;;;5026709;28;1311;-69
2023/05/20 13:23:20;;;;;;;;;;;18.60;65.10;;;;;;5034630;28;1906;-68
2023/05/20 13:25:45;;;;;;;;;;;18.60;65.10;;;;;;5041447;28;1204;-68
2023/05/20 13:28:15;;;;;;;;;;;18.60;65.00;;;;;;5020617;28;1317;-68
2023/05/20 13:30:40;;;;;;;;;;;18.60;65.60;;;;;;5041515;28;1254;-68
2023/05/20 13:33:06;;;;;;;;;;;18.60;64.90;;;;;;5022799;28;876;-68
2023/05/20 13:35:32;;;;;;;;;;;18.70;64.90;;;;;;5033359;28;1614;-68
2023/05/20 13:37:57;;;;;;;;;;;18.60;65.00;;;;;;5027654;28;1930;-68
2023/05/20 13:40:23;;;;;;;;;;;18.60;64.70;;;;;;5041404;28;1381;-68
2023/05/20 13:42:49;;;;;;;;;;;18.70;64.70;;;;;;5042383;28;1952;-68
2023/05/20 13:45:14;;;;;;;;;;;18.70;64.90;;;;;;5040703;28;847;-68
2023/05/20 13:47:40;;;;;;;;;;;18.60;64.90;;;;;;5039217;28;776;-68
2023/05/20 13:50:06;;;;;;;;;;;18.70;64.80;;;;;;5038495;28;835;-68
2023/05/20 13:52:31;;;;;;;;;;;18.60;64.80;;;;;;5039509;28;1721;-68
2023/05/20 13:54:57;;;;;;;;;;;18.60;64.80;;;;;;5043837;28;1421;-68
2023/05/20 13:57:22;;;;;;;;;;;18.70;64.90;;;;;;5044751;28;1234;-68
2023/05/20 13:59:47;;;;;;;;;;;18.60;64.70;;;;;;5038640;28;994;-68
2023/05/20 14:02:13;;;;;;;;;;;18.60;64.70;;;;;;5022611;28;1241;-68
2023/05/20 14:04:39;;;;;;;;;;;18.70;64.70;;;;;;5024466;28;1914;-68
2023/05/20 14:07:05;;;;;;;;;;;18.60;64.70;;;;;;5039593;28;859;-68
2023/05/20 14:09:30;;;;;;;;;;;18.70;64.70;;;;;;5028405;28;954;-68
2023/05/20 14:11:56;;;;;;;;;;;18.60;64.70;;;;;;5021659;28;1297;-68
2023/05/20 14:14:21;;;;;;;;;;;18.60;64.70;;;;;;5038785;28;1322;-68
2023/05/20 14:16:47;;;;;;;;;;;18.60;64.60;;;;;;5037838;28;840;-68
2023/05/20 14:19:12;;;;;;;;;;;18.60;64.70;;;;;;5037491;28;872;-68
2023/05/20 14:21:38;;;;;;;;;;;18.60;64.70;;;;;;5022569;28;1344;-68
2023/05/20 14:24:03;;;;;;;;;;;18.60;64.70;;;;;;5040969;28;1979;-69
2023/05/20 14:26:29;;;;;;;;;;;18.60;64.80;;;;;;5040076;28;875;-68
2023/05/20 14:28:54;;;;;;;;;;;18.60;64.70;;;;;;5041059;28;1278;-68